Flight Track Log - Related Links

Times and Time Zones

All times are in EDT time to prevent confusion due to time zone crossing. See the SWA771 flight status page for this flight to view local times or setup timezone preferences in your user account.

Time Position Orientation Groundspeed Altitude Reporting Facility
EDT Latitude Longitude Course Direction KTS MPH feet Rate Location/Type
Sat 04:48:26 PM 27.9667 -82.5500 180° South 175 201 800  Level Tampa TRACON
Sat 04:49:26 PM 27.9167 -82.5500 180° South 191 220 2,400 1,873 Climbing Tampa TRACON
Sat 04:51:03 PM 27.8847 -82.6178 242° Southwest 158 182 5,700 2,140 Climbing Jacksonville Center
Sat 04:52:03 PM 27.9619 -82.6458 342° North 139 160 8,000 2,350 Climbing Jacksonville Center
Sat 04:53:03 PM 28.0411 -82.6714 344° North 247 284 10,400 2,000 Climbing Jacksonville Center
Sat 04:54:03 PM 28.1372 -82.6994 346° North 289 333 12,000 2,168 Climbing Jacksonville Center
Sat 04:55:02 PM 28.2394 -82.7322 344° North 344 396 14,700 2,750 Climbing Jacksonville Center
Sat 04:56:03 PM 28.3461 -82.7653 345° North 379 436 17,500 2,579 Climbing Jacksonville Center
Sat 04:57:03 PM 28.4525 -82.7958 346° North 391 450 19,900 1,916 Climbing Jacksonville Center
Sat 04:58:02 PM 28.5653 -82.8144 352° North 403 464 21,300 1,050 Climbing Jacksonville Center
Sat 04:59:03 PM 28.6633 -82.8736 332° Northwest 403 464 22,000 347 Climbing Jacksonville Center
Sat 05:00:03 PM 28.7572 -82.9400 328° Northwest 393 452 22,000  Level Jacksonville Center
Sat 05:01:02 PM 28.8489 -83.0017 329° Northwest 387 445 22,000 605 Level Jacksonville Center
Sat 05:02:02 PM 28.9428 -83.0681 328° Northwest 387 445 23,200 1,500 Climbing Jacksonville Center
Sat 05:03:02 PM 29.0367 -83.1300 330° Northwest 387 445 25,000 1,600 Climbing Jacksonville Center
Sat 05:04:02 PM 29.1347 -83.2017 327° Northwest 393 452 26,400 1,600 Climbing Jacksonville Center
Sat 05:05:02 PM 29.2325 -83.2686 329° Northwest 410 472 28,200 1,636 Climbing Jacksonville Center
Sat 05:06:03 PM 29.3325 -83.3403 328° Northwest 415 478 29,700 1,200 Climbing Jacksonville Center
Sat 05:07:02 PM 29.4242 -83.4289 320° Northwest 421 484 30,600 1,059 Climbing Jacksonville Center
Sat 05:08:02 PM 29.4883 -83.5272 307° West 421 484 31,800 1,388 Climbing Jacksonville Center
Sat 05:09:03 PM 29.5567 -83.6400 305° West 427 491 33,400 1,450 Climbing Jacksonville Center
Sat 05:10:02 PM 29.6247 -83.7528 305° West 432 497 34,700 1,300 Climbing Jacksonville Center
Sat 05:11:03 PM 29.6928 -83.8656 305° West 432 497 36,000 650 Climbing Jacksonville Center
Sat 05:12:02 PM 29.7567 -83.9717 305° West 424 488 36,000 605 Level Jacksonville Center
Sat 05:13:02 PM 29.8247 -84.0847 305° West 418 481 37,200 1,000 Climbing Jacksonville Center
Sat 05:14:02 PM 29.8986 -84.2008 306° West 418 481 38,000 400 Climbing Jacksonville Center
Sat 05:15:02 PM 29.9622 -84.3047 305° West 413 475 38,000  Level Jacksonville Center
Sat 05:16:03 PM 30.0217 -84.4111 303° West 408 470 38,000  Level Jacksonville Center
Sat 05:17:03 PM 30.0828 -84.5153 304° West 403 464 38,000  Level Jacksonville Center
Sat 05:18:03 PM 30.1442 -84.6172 305° West 398 458 38,000  Level Jacksonville Center
Sat 05:19:03 PM 30.2075 -84.7192 306° West 398 458 38,000  Level Jacksonville Center
Sat 05:20:03 PM 30.2686 -84.8214 305° West 398 458 38,000  Level Jacksonville Center
Sat 05:21:02 PM 30.3275 -84.9261 303° West 398 458 38,000  Level Jacksonville Center
Sat 05:22:03 PM 30.3906 -85.0261 306° West 393 452 38,000  Level Jacksonville Center
Sat 05:23:03 PM 30.4494 -85.1286 304° West 393 452 38,000  Level Jacksonville Center
Sat 05:24:02 PM 30.5042 -85.2192 305° West 388 447 38,000  Level Jacksonville Center
Sat 05:25:03 PM 30.5628 -85.3194 304° West 388 447 38,000  Level Jacksonville Center
Sat 05:26:02 PM 30.6214 -85.4225 303° West 383 441 38,000  Level Jacksonville Center
Sat 05:27:02 PM 30.6819 -85.5231 305° West 378 435 38,000  Level Jacksonville Center
Sat 05:28:02 PM 30.7406 -85.6214 305° West 378 435 38,000  Level Jacksonville Center
Sat 05:29:02 PM 30.7986 -85.7294 302° West 378 435 38,000  Level Jacksonville Center
Sat 05:30:02 PM 30.8589 -85.8303 305° West 384 442 38,000  Level Jacksonville Center
Sat 05:31:02 PM 30.9192 -85.9364 304° West 384 442 38,000  Level Jacksonville Center
Sat 05:32:02 PM 30.9792 -86.0425 303° West 384 442 38,000  Level Jacksonville Center
Sat 05:33:03 PM 31.0392 -86.1439 305° West 384 442 38,000  Level Jacksonville Center
Sat 05:34:02 PM 31.1011 -86.2578 302° West 384 442 38,000  Level Jacksonville Center
Sat 05:35:02 PM 31.1628 -86.3642 304° West 389 448 38,000  Level Jacksonville Center
Sat 05:37:10 PM 31.2803 -86.5706 304° West 384 442 38,000  Level Atlanta Center
Sat 05:38:10 PM 31.3386 -86.6742 303° West 379 436 38,000  Level Atlanta Center
Sat 05:39:10 PM 31.4094 -86.7858 307° West 384 442 38,000  Level Atlanta Center
Sat 05:40:10 PM 31.4553 -86.8822 299° West 384 442 38,000  Level Atlanta Center
Sat 05:41:10 PM 31.5153 -86.9864 304° West 379 436 38,000  Level Atlanta Center
Sat 05:42:10 PM 31.5856 -87.0983 306° West 384 442 38,000  Level Atlanta Center
Sat 05:43:10 PM 31.6414 -87.2025 302° West 389 448 38,000  Level Atlanta Center
Sat 05:44:10 PM 31.6892 -87.2944 301° West 378 435 38,000  Level Atlanta Center
Sat 05:45:10 PM 31.7550 -87.4069 305° West 378 435 38,000  Level Atlanta Center
Sat 05:46:10 PM 31.8106 -87.5067 303° West 378 435 38,000  Level Atlanta Center
Sat 05:47:10 PM 31.8683 -87.6117 303° West 378 435 38,000  Level Atlanta Center
Sat 05:48:56 PM 31.9647 -87.7889 303° West 372 428 38,000  Level Memphis Center
Sat 05:49:56 PM 32.0211 -87.8875 304° West 372 428 38,000  Level Memphis Center
Sat 05:50:56 PM 32.0753 -87.9892 302° West 367 422 38,000  Level Memphis Center
Sat 05:51:56 PM 32.1294 -88.0908 302° West 367 422 38,000  Level Memphis Center
Sat 05:52:56 PM 32.1853 -88.1925 303° West 362 417 38,000  Level Memphis Center
Sat 05:53:56 PM 32.2392 -88.2917 303° West 362 417 38,000  Level Memphis Center
Sat 05:54:56 PM 32.2953 -88.3961 302° West 369 425 38,000  Level Memphis Center
Sat 05:55:56 PM 32.3469 -88.4958 302° West 369 425 38,000  Level Memphis Center
Sat 05:56:56 PM 32.3942 -88.5833 303° West 357 411 38,000  Level Memphis Center
Sat 05:57:56 PM 32.4478 -88.6833 302° West 357 411 38,000  Level Memphis Center
Sat 05:58:56 PM 32.5033 -88.7808 304° West 357 411 38,000  Level Memphis Center
Sat 05:59:56 PM 32.5589 -88.8833 303° West 357 411 38,000  Level Memphis Center
Sat 06:00:56 PM 32.6122 -88.9861 302° West 357 411 38,000  Level Memphis Center
Sat 06:01:56 PM 32.6653 -89.0839 303° West 362 417 38,000  Level Memphis Center
Sat 06:02:56 PM 32.7206 -89.1894 302° West 362 417 38,000  Level Memphis Center
Sat 06:03:56 PM 32.7736 -89.2875 303° West 356 410 38,000  Level Memphis Center
Sat 06:04:56 PM 32.8267 -89.3906 302° West 356 410 38,000  Level Memphis Center
Sat 06:05:56 PM 32.8797 -89.4914 302° West 356 410 38,000  Level Memphis Center
Sat 06:06:56 PM 32.9325 -89.5900 303° West 356 410 38,000  Level Memphis Center
Sat 06:07:56 PM 32.9853 -89.6936 301° West 356 410 38,000  Level Memphis Center
Sat 06:08:56 PM 33.0464 -89.8047 303° West 362 417 38,000  Level Memphis Center
Sat 06:09:56 PM 33.0992 -89.9083 301° West 362 417 38,000  Level Memphis Center
Sat 06:10:56 PM 33.1517 -90.0100 302° West 362 417 38,000  Level Memphis Center
Sat 06:11:56 PM 33.2039 -90.1139 301° West 357 411 38,000  Level Memphis Center
Sat 06:12:56 PM 33.2564 -90.2156 302° West 357 411 38,000  Level Memphis Center
Sat 06:13:56 PM 33.3086 -90.3200 301° West 357 411 38,000  Level Memphis Center
Sat 06:14:56 PM 33.3628 -90.4244 302° West 357 411 38,000  Level Memphis Center
Sat 06:15:56 PM 33.4150 -90.5289 301° West 357 411 38,000  Level Memphis Center
Sat 06:16:56 PM 33.4650 -90.6236 302° West 357 411 38,000  Level Memphis Center
Sat 06:17:56 PM 33.5169 -90.7258 301° West 357 411 38,000  Level Memphis Center
Sat 06:18:56 PM 33.5686 -90.8308 301° West 357 411 38,000  Level Memphis Center
Sat 06:19:56 PM 33.6225 -90.9361 302° West 362 417 38,000  Level Memphis Center
Sat 06:20:56 PM 33.6761 -91.0411 302° West 362 417 38,000  Level Memphis Center
Sat 06:21:56 PM 33.7300 -91.1439 302° West 362 417 38,000  Level Memphis Center
Sat 06:22:56 PM 33.7792 -91.2519 299° West 362 417 38,000  Level Memphis Center
Sat 06:23:56 PM 33.8369 -91.3650 302° West 362 417 38,000  Level Memphis Center
Sat 06:24:56 PM 33.8881 -91.4683 301° West 369 425 38,000  Level Memphis Center
Sat 06:25:56 PM 33.9414 -91.5767 301° West 369 425 38,000  Level Memphis Center
Sat 06:27:00 PM 33.9978 -91.6960 300° West  Level FlightAware Approximate
Sat 06:27:56 PM 34.0561 -91.7939 300° West 384 442 38,000  Level Memphis Center
Sat 06:28:56 PM 34.1047 -91.9000 299° West 378 435 38,000  Level Memphis Center
Sat 06:29:56 PM 34.1578 -92.0114 300° West 378 435 38,000  Level Memphis Center
Sat 06:30:56 PM 34.2106 -92.1203 300° West 378 435 38,000  Level Memphis Center
Sat 06:31:56 PM 34.2569 -92.2167 300° West 378 435 38,000  Level Memphis Center
Sat 06:32:56 PM 34.3117 -92.3261 301° West 378 435 38,000  Level Memphis Center
Sat 06:33:56 PM 34.3664 -92.4356 301° West 384 442 38,000  Level Memphis Center
Sat 06:34:56 PM 34.4206 -92.5503 300° West 384 442 38,000  Level Memphis Center
Sat 06:35:56 PM 34.4728 -92.6622 300° West 384 442 38,000  Level Memphis Center
Sat 06:36:56 PM 34.5292 -92.7722 302° West 384 442 38,000  Level Memphis Center
Sat 06:37:56 PM 34.5811 -92.8897 298° West 384 442 38,000  Level Memphis Center
Sat 06:38:56 PM 34.6353 -93.0000 301° West 384 442 38,000  Level Memphis Center
Sat 06:39:56 PM 34.6892 -93.1078 301° West 379 436 38,000  Level Memphis Center
Sat 06:40:56 PM 34.7428 -93.2256 299° West 384 442 38,000  Level Memphis Center
Sat 06:41:56 PM 34.7967 -93.3386 300° West 384 442 38,000  Level Memphis Center
Sat 06:42:56 PM 34.8500 -93.4519 300° West 384 442 38,000  Level Memphis Center
Sat 06:43:56 PM 34.9056 -93.5678 300° West 384 442 38,000  Level Memphis Center
Sat 06:44:56 PM 34.9589 -93.6839 299° West 384 442 38,000  Level Memphis Center
Sat 06:45:56 PM 35.0100 -93.7950 299° West 384 442 38,000  Level Memphis Center
Sat 06:46:56 PM 35.0672 -93.9164 300° West 390 449 38,000  Level Memphis Center
Sat 06:47:56 PM 35.1203 -94.0306 300° West 395 455 38,000  Level Memphis Center
Sat 06:48:56 PM 35.1750 -94.1497 299° West 402 463 38,000  Level Memphis Center
Sat 06:49:56 PM 35.2297 -94.2692 299° West 402 463 38,000  Level Memphis Center
Sat 06:50:56 PM 35.2822 -94.3886 298° West 402 463 38,000  Level Memphis Center
Sat 06:52:49 PM 35.3919 -94.6253 300° West 398 458 38,000  Level Fort Worth Center
Sat 06:53:49 PM 35.4444 -94.7406 299° West 398 458 38,000  Level Fort Worth Center
Sat 06:54:49 PM 35.4969 -94.8614 298° West 393 452 38,000  Level Fort Worth Center
Sat 06:55:49 PM 35.5536 -94.9794 301° West 393 452 38,000  Level Fort Worth Center
Sat 06:56:49 PM 35.6081 -95.1006 299° West 400 460 38,000  Level Fort Worth Center
Sat 06:57:18 PM 35.6300 -95.1453 301° West 402 463 38,000  Level Kansas City Center
Sat 06:58:19 PM 35.6833 -95.2683 298° West 406 467 38,000  Level Kansas City Center
Sat 06:59:21 PM 35.7392 -95.3928 299° West 409 471 38,000  Level Kansas City Center
Sat 07:00:22 PM 35.7947 -95.5167 299° West 411 473 38,000  Level Kansas City Center
Sat 07:01:24 PM 35.8494 -95.6417 298° West 412 474 38,000  Level Kansas City Center
Sat 07:02:25 PM 35.9036 -95.7656 298° West 410 472 38,000  Level Kansas City Center
Sat 07:03:27 PM 35.9575 -95.8903 298° West 408 470 38,000  Level Kansas City Center
Sat 07:04:28 PM 36.0231 -96.0381 299° West 407 468 38,000  Level Kansas City Center
Sat 07:05:30 PM 36.0764 -96.1611 298° West 405 466 38,000  Level Kansas City Center
Sat 07:06:31 PM 36.1311 -96.2847 299° West 406 467 38,000  Level Kansas City Center
Sat 07:07:33 PM 36.1833 -96.4086 298° West 406 467 38,000  Level Kansas City Center
Sat 07:08:34 PM 36.2356 -96.5311 298° West 404 465 38,000  Level Kansas City Center
Sat 07:09:36 PM 36.2894 -96.6547 298° West 405 466 38,000  Level Kansas City Center
Sat 07:10:37 PM 36.3408 -96.7733 298° West 402 463 38,000  Level Kansas City Center
Sat 07:11:38 PM 36.3928 -96.8975 297° West 405 466 38,000  Level Kansas City Center
Sat 07:12:40 PM 36.4458 -97.0214 298° West 407 468 38,000  Level Kansas City Center
Sat 07:13:41 PM 36.5092 -97.1708 298° West 409 471 38,000  Level Kansas City Center
Sat 07:14:43 PM 36.5625 -97.2981 298° West 415 478 38,000  Level Kansas City Center
Sat 07:15:44 PM 36.6156 -97.4264 297° West 418 481 38,000  Level Kansas City Center
Sat 07:16:45 PM 36.6611 -97.5383 297° West 418 481 38,000  Level Kansas City Center
Sat 07:17:47 PM 36.7239 -97.6872 298° West 408 470 38,000  Level Kansas City Center
Sat 07:18:48 PM 36.7789 -97.8156 298° West 404 465 38,000  Level Kansas City Center
Sat 07:19:50 PM 36.8275 -97.9358 297° West 403 464 38,000  Level Kansas City Center
Sat 07:20:51 PM 36.8772 -98.0581 297° West 399 459 38,000  Level Kansas City Center
Sat 07:21:52 PM 36.9300 -98.1856 297° West 405 466 38,000  Level Kansas City Center
Sat 07:22:54 PM 36.9808 -98.3106 297° West 406 467 38,000  Level Kansas City Center
Sat 07:23:55 PM 37.0331 -98.4392 297° West 405 466 38,000  Level Kansas City Center
Sat 07:24:56 PM 37.0825 -98.5606 297° West 402 463 38,000  Level Kansas City Center
Sat 07:25:58 PM 37.1317 -98.6833 297° West 399 459 38,000  Level Kansas City Center
Sat 07:26:59 PM 37.1814 -98.8056 297° West 396 456 38,000  Level Kansas City Center
Sat 07:28:00 PM 37.2294 -98.9297 296° West 395 455 38,000  Level Kansas City Center
Sat 07:29:02 PM 37.2889 -99.0778 297° West 395 455 38,000  Level Kansas City Center
Sat 07:30:03 PM 37.3358 -99.2000 296° West 393 452 38,000  Level Kansas City Center
Sat 07:31:04 PM 37.3858 -99.3242 297° West 395 455 38,000  Level Kansas City Center
Sat 07:32:05 PM 37.4358 -99.4494 297° West 400 460 38,000  Level Kansas City Center
Sat 07:33:07 PM 37.4886 -99.5875 296° West 398 458 38,000  Level Kansas City Center
Sat 07:34:08 PM 37.5364 -99.7081 297° West 401 461 38,000  Level Kansas City Center
Sat 07:35:09 PM 37.5847 -99.8303 297° West 405 466 38,000  Level Kansas City Center
Sat 07:36:11 PM 37.6392 -99.9711 296° West 404 465 38,000  Level Kansas City Center
Sat 07:37:12 PM 37.6864 -100.0919 296° West 402 463 38,000  Level Kansas City Center
Sat 07:38:13 PM 37.7389 -100.2317 295° West 397 457 38,000  Level Kansas City Center
Sat 07:39:14 PM 37.7853 -100.3536 296° West 402 463 38,000  Level Kansas City Center
Sat 07:40:16 PM 37.8325 -100.4772 296° West 408 470 38,000  Level Kansas City Center
Sat 07:41:17 PM 37.8869 -100.6206 296° West 409 471 38,000  Level Kansas City Center
Sat 07:42:18 PM 37.9339 -100.7442 296° West 410 472 38,000  Level Kansas City Center
Sat 07:43:20 PM 37.9869 -100.8894 295° West 410 472 38,000  Level Kansas City Center
Sat 07:44:21 PM 38.0336 -101.0139 295° West 410 472 38,000  Level Kansas City Center
Sat 07:45:22 PM 38.0903 -101.1575 297° West 410 472 38,000  Level Kansas City Center
Sat 07:46:25 PM 38.1417 -101.2775 299° West 407 468 38,000  Level Denver Center
Sat 07:47:26 PM 38.1989 -101.4189 297° West 406 467 38,000 -293 Level Denver Center
Sat 07:48:28 PM 38.2489 -101.5392 298° West 404 465 37,400 -1,220 Descending Denver Center
Sat 07:49:29 PM 38.3000 -101.6656 297° West 420 483 35,500 -2,066 Descending Denver Center
Sat 07:50:30 PM 38.3608 -101.8131 298° West 423 487 33,200 -1,707 Descending Denver Center
Sat 07:51:32 PM 38.4117 -101.9408 297° West 424 488 32,000 -585 Descending Denver Center
Sat 07:52:33 PM 38.4550 -102.0481 297° West 428 493 32,000  Level Denver Center
Sat 07:53:35 PM 38.5225 -102.2178 297° West 417 480 32,000 -341 Level Denver Center
Sat 07:54:36 PM 38.5722 -102.3383 298° West 404 465 31,300 -934 Descending Denver Center
Sat 07:55:37 PM 38.6258 -102.4767 296° West 392 451 30,100 -1,024 Descending Denver Center
Sat 07:56:39 PM 38.6717 -102.5917 297° West 382 440 29,200 -1,024 Descending Denver Center
Sat 07:57:40 PM 38.7247 -102.7269 297° West 381 438 28,000 -1,033 Descending Denver Center
Sat 07:58:41 PM 38.7669 -102.8383 296° West 376 433 27,100 -976 Descending Denver Center
Sat 07:59:43 PM 38.8172 -102.9675 297° West 365 420 26,000 -1,024 Descending Denver Center
Sat 08:00:44 PM 38.8611 -103.0786 297° West 365 420 25,000 -984 Descending Denver Center
Sat 08:01:45 PM 38.9028 -103.1867 296° West 357 411 24,000 -934 Descending Denver Center
Sat 08:02:46 PM 38.9447 -103.2939 297° West 352 405 23,100 -1,024 Descending Denver Center
Sat 08:03:48 PM 38.9914 -103.4144 297° West 341 392 21,900 -1,122 Descending Denver Center
Sat 08:04:49 PM 39.0364 -103.5342 296° West 333 383 20,800 -976 Descending Denver Center
Sat 08:05:51 PM 39.0750 -103.6333 297° West 326 375 19,900 -927 Descending Denver Center
Sat 08:06:52 PM 39.1119 -103.7347 295° West 328 377 18,900 -1,033 Descending Denver Center
Sat 08:07:53 PM 39.1564 -103.8489 297° West 325 374 17,800 -885 Descending Denver Center
Sat 08:08:54 PM 39.1919 -103.9428 296° West 317 365 17,100 -732 Descending Denver Center
Sat 08:09:56 PM 39.2336 -104.0519 296° West 310 357 16,300 -1,268 Descending Denver Center
Sat 08:10:57 PM 39.2761 -104.1472 300° West 310 357 14,500 -1,180 Descending Denver Center
Sat 08:11:58 PM 39.3075 -104.2381 294° West 288 331 13,900 -492 Descending Denver Center
Sat 08:12:59 PM 39.3139 -104.3308 275° West 263 303 13,500 -439 Descending Denver Center
Sat 08:14:01 PM 39.3414 -104.4111 294° West 236 272 13,000 -829 Descending Denver Center
Sat 08:15:02 PM 39.3714 -104.4850 298° West 234 269 11,800 -1,131 Descending Denver Center
Sat 08:16:03 PM 39.4186 -104.5381 319° Northwest 234 269 10,700 -1,220 Descending Denver Center
Sat 08:17:05 PM 39.4767 -104.5711 336° Northwest 229 264 9,300 -829 Descending Denver Center
Sat 08:18:06 PM 39.5425 -104.5986 342° North 232 267 9,000 -148 Descending Denver Center
Sat 08:19:07 PM 39.6061 -104.6158 348° North 233 268 9,000 -148 Level Denver Center
Sat 08:20:08 PM 39.6700 -104.6364 346° North 236 272 8,700 -444 Descending Denver Center
Sat 08:21:22 PM 39.7300 -104.6581 344° North 205 236 8,000 -1,067 Descending Denver Center
Sat 08:22:23 PM 39.7861 -104.6617 357° North 169 194 6,300 -1,279 Descending Denver Center
Sat 08:23:24 PM 39.8292 -104.6606 North 158 182 5,400 -885 Descending Denver Center
Sat 08:25:00 PM 39.8500 -104.6667 North  Level FlightAware Approximate
Sat 08:32:00 PM 39.8617 -104.6732 North  Level Estimated
Sat 08:33:00 PM 39.8617 -104.6732 North  Level Estimated

Login

Don't have an account? Register now (free) for customized features, flight alerts, and more!